Time;durP1;ratioP1;P1;durP2;ratioP2;P2;SDS_P1;SDS_P2;PMS_P1;PMS_P2;Temp;Humidity;BMP_temperature;BMP_pressure;BME280_temperature;BME280_humidity;BME280_pressure;Samples;Min_cycle;Max_cycle;Signal;HPM_P1;HPM_P2
2023/07/21 00:00:35;;;;;;;4.20;3.25;;;;;;;19.73;100.00;97416.47;1224083;75;2938232;-67
2023/07/21 00:03:08;;;;;;;3.05;2.50;;;;;;;19.82;100.00;97404.16;1224555;75;2924796;-65
2023/07/21 00:05:43;;;;;;;3.05;2.70;;;;;;;19.65;100.00;97412.13;1224265;75;2922609;-66
2023/07/21 00:08:16;;;;;;;3.10;2.80;;;;;;;19.77;100.00;97410.56;1224458;75;2919962;-67
2023/07/21 00:10:50;;;;;;;3.55;2.40;;;;;;;19.89;100.00;97417.34;1223978;75;2932687;-65
2023/07/21 00:13:22;;;;;;;3.05;2.40;;;;;;;20.03;100.00;97401.28;1223734;75;2925078;-68
2023/07/21 00:15:55;;;;;;;2.00;1.80;;;;;;;20.07;100.00;97400.97;1224803;75;2922327;-67
2023/07/21 00:18:28;;;;;;;2.35;2.00;;;;;;;20.08;100.00;97411.50;1224704;75;2923173;-65
2023/07/21 00:21:05;;;;;;;1.60;1.50;;;;;;;19.85;100.00;97430.81;1224397;75;2922677;-71
2023/07/21 00:23:37;;;;;;;3.15;2.60;;;;;;;19.46;100.00;97437.31;1225163;75;2925746;-64
2023/07/21 00:26:13;;;;;;;4.10;3.00;;;;;;;19.53;100.00;97436.63;1223896;75;2920318;-65
2023/07/21 00:28:46;;;;;;;4.15;2.80;;;;;;;19.63;100.00;97434.16;1224343;67;2892524;-64
2023/07/21 00:31:18;;;;;;;3.15;2.60;;;;;;;19.56;100.00;97418.91;1224980;75;2927612;-66
2023/07/21 00:33:51;;;;;;;3.35;2.90;;;;;;;19.56;100.00;97416.13;1223972;75;2926227;-66
2023/07/21 00:36:26;;;;;;;3.10;2.50;;;;;;;19.83;100.00;97419.50;1224320;75;2927340;-68
2023/07/21 00:38:59;;;;;;;3.35;2.20;;;;;;;19.95;100.00;97428.28;1224117;75;2924027;-69
2023/07/21 00:41:31;;;;;;;1.75;1.60;;;;;;;19.97;100.00;97420.91;1219546;75;3169616;-69
2023/07/21 00:44:06;;;;;;;1.35;1.25;;;;;;;19.94;100.00;97427.56;1224328;75;2918111;-66
2023/07/21 00:46:39;;;;;;;2.10;1.90;;;;;;;19.78;100.00;97423.19;1221732;75;3024204;-64
2023/07/21 00:49:12;;;;;;;3.50;2.70;;;;;;;19.46;100.00;97424.19;1224642;75;2923529;-67
2023/07/21 00:51:47;;;;;;;2.90;2.55;;;;;;;19.46;100.00;97429.75;1224366;75;2922046;-69
2023/07/21 00:54:20;;;;;;;5.00;4.10;;;;;;;19.10;100.00;97427.56;1223780;75;2921875;-65
2023/07/21 00:56:53;;;;;;;6.25;4.40;;;;;;;18.97;100.00;97435.19;1223415;75;2961643;-64
2023/07/21 00:59:25;;;;;;;8.35;4.80;;;;;;;18.77;100.00;97440.16;1224044;75;2928586;-69
2023/07/21 01:01:58;;;;;;;7.10;4.85;;;;;;;18.96;100.00;97453.13;1224218;75;2924082;-65
2023/07/21 01:04:31;;;;;;;5.15;3.60;;;;;;;18.88;100.00;97437.16;1224023;75;2929384;-67
2023/07/21 01:07:09;;;;;;;4.45;3.25;;;;;;;19.14;100.00;97427.22;1224123;75;2929406;-65
2023/07/21 01:09:43;;;;;;;8.10;4.40;;;;;;;18.97;100.00;97419.28;1224870;75;2922879;-66
2023/07/21 01:12:16;;;;;;;4.80;3.75;;;;;;;19.05;100.00;97419.34;1224555;75;2926820;-67
2023/07/21 01:14:49;;;;;;;5.50;3.60;;;;;;;19.14;100.00;97422.41;1223799;75;2928057;-66
2023/07/21 01:17:23;;;;;;;4.25;3.60;;;;;;;19.28;100.00;97431.44;1223835;75;2925124;-65
2023/07/21 01:19:56;;;;;;;7.25;4.10;;;;;;;18.95;100.00;97438.50;1224181;75;2955852;-66
2023/07/21 01:22:39;;;;;;;5.55;3.80;;;;;;;18.93;100.00;97435.53;1224004;75;2927715;-64
2023/07/21 01:25:17;;;;;;;7.00;3.60;;;;;;;18.99;100.00;97441.69;1223996;75;2924376;-65
2023/07/21 01:27:52;;;;;;;4.00;3.60;;;;;;;19.00;100.00;97443.19;1224231;75;2925810;-66
2023/07/21 01:30:26;;;;;;;3.55;3.25;;;;;;;19.06;100.00;97446.56;1224113;75;2923910;-66
2023/07/21 01:33:01;;;;;;;5.95;4.10;;;;;;;18.97;100.00;97440.72;1223790;75;2933591;-63
2023/07/21 01:35:35;;;;;;;5.00;3.40;;;;;;;19.22;100.00;97439.16;1223356;75;2927173;-67
2023/07/21 01:38:09;;;;;;;4.05;3.20;;;;;;;19.27;100.00;97426.44;1223978;75;2921271;-65
2023/07/21 01:40:45;;;;;;;4.20;3.30;;;;;;;19.26;100.00;97424.94;1224589;75;2924029;-66
2023/07/21 01:43:18;;;;;;;3.95;3.20;;;;;;;19.35;100.00;97421.69;1224356;75;2932265;-64
2023/07/21 01:45:50;;;;;;;4.05;3.25;;;;;;;19.13;100.00;97418.16;1224528;75;2922605;-64
2023/07/21 01:48:24;;;;;;;5.55;4.10;;;;;;;18.89;100.00;97416.44;1223966;75;2922824;-66
2023/07/21 01:50:59;;;;;;;5.75;4.00;;;;;;;19.24;100.00;97413.63;1224393;75;2927990;-67
2023/07/21 01:53:33;;;;;;;4.20;3.10;;;;;;;19.35;100.00;97416.88;1224772;75;2919703;-67
2023/07/21 01:56:16;;;;;;;5.00;4.40;;;;;;;18.94;100.00;97412.03;1223012;75;2928389;-67
2023/07/21 01:58:50;;;;;;;5.00;3.90;;;;;;;19.21;100.00;97409.16;1223885;75;2927490;-67
2023/07/21 02:01:24;;;;;;;4.35;3.50;;;;;;;19.55;100.00;97409.06;1223605;75;2947995;-65
2023/07/21 02:03:57;;;;;;;3.05;2.50;;;;;;;19.66;100.00;97419.19;1223817;75;2924751;-66
2023/07/21 02:06:30;;;;;;;2.30;2.10;;;;;;;19.63;100.00;97414.72;1223257;75;2925876;-68
2023/07/21 02:09:03;;;;;;;2.30;2.10;;;;;;;19.65;100.00;97409.34;1223468;75;2924146;-65
2023/07/21 02:11:38;;;;;;;2.70;2.35;;;;;;;19.64;100.00;97396.75;1223362;75;2927589;-68
2023/07/21 02:14:11;;;;;;;2.70;2.20;;;;;;;19.75;100.00;97393.72;1222995;75;2931257;-66
2023/07/21 02:16:43;;;;;;;2.95;2.45;;;;;;;19.68;100.00;97377.75;1224034;75;2920853;-65
2023/07/21 02:19:17;;;;;;;2.20;2.00;;;;;;;19.77;100.00;97361.34;1223156;75;2926702;-68
2023/07/21 02:21:50;;;;;;;2.30;2.10;;;;;;;19.77;100.00;97368.91;1221849;75;3059293;-65
2023/07/21 02:24:23;;;;;;;2.25;2.00;;;;;;;19.57;100.00;97378.75;1224534;75;2926112;-64
2023/07/21 02:26:59;;;;;;;3.90;3.50;;;;;;;19.38;100.00;97384.50;1223928;75;2935559;-65
2023/07/21 02:29:31;;;;;;;3.20;2.60;;;;;;;19.68;100.00;97369.41;1223735;75;2921646;-65
2023/07/21 02:32:04;;;;;;;2.70;2.40;;;;;;;19.77;100.00;97349.47;1223916;75;2922837;-68
2023/07/21 02:34:39;;;;;;;3.55;2.90;;;;;;;19.69;100.00;97359.78;1223926;75;2924423;-65
2023/07/21 02:37:11;;;;;;;3.10;2.60;;;;;;;19.77;100.00;97352.25;1223602;75;2927053;-67
2023/07/21 02:39:44;;;;;;;2.65;2.20;;;;;;;19.74;100.00;97342.97;1223893;75;2929780;-65
2023/07/21 02:42:19;;;;;;;2.90;2.65;;;;;;;19.76;100.00;97339.66;1224381;75;2922093;-69
2023/07/21 02:44:52;;;;;;;2.40;2.10;;;;;;;19.73;100.00;97360.94;1223855;75;2927812;-66
2023/07/21 02:47:24;;;;;;;3.10;2.70;;;;;;;19.70;100.00;97372.38;1224915;75;2856576;-66
2023/07/21 02:49:57;;;;;;;5.00;2.80;;;;;;;19.54;100.00;97377.78;1224005;75;2926449;-65
2023/07/21 02:52:30;;;;;;;5.35;3.60;;;;;;;19.42;100.00;97381.41;1224047;75;2924902;-66
2023/07/21 02:55:02;;;;;;;3.75;3.40;;;;;;;19.53;100.00;97387.44;1222755;75;2926751;-65
2023/07/21 02:57:38;;;;;;;4.15;3.45;;;;;;;19.45;100.00;97389.38;1224209;75;2929424;-65
2023/07/21 03:00:14;;;;;;;4.10;3.65;;;;;;;19.51;100.00;97392.78;1223946;75;2926250;-66
2023/07/21 03:02:46;;;;;;;5.55;3.15;;;;;;;19.69;100.00;97395.88;1224180;75;2928585;-66
2023/07/21 03:05:19;;;;;;;4.60;3.75;;;;;;;19.40;100.00;97401.38;1223628;75;2925230;-64
2023/07/21 03:07:52;;;;;;;3.85;3.45;;;;;;;19.48;100.00;97402.19;1223502;75;2931547;-65
2023/07/21 03:10:24;;;;;;;5.70;3.95;;;;;;;19.26;100.00;97397.91;1224019;75;2924782;-65
2023/07/21 03:12:59;;;;;;;5.65;4.60;;;;;;;19.02;100.00;97392.69;1224212;75;2923084;-67
2023/07/21 03:15:32;;;;;;;5.60;4.25;;;;;;;19.14;100.00;97391.16;1224035;75;2921579;-67
2023/07/21 03:18:05;;;;;;;4.80;3.85;;;;;;;19.11;100.00;97383.91;1224603;75;2920536;-68
2023/07/21 03:20:37;;;;;;;4.80;4.20;;;;;;;19.38;100.00;97367.84;1223585;75;2922265;-64
2023/07/21 03:23:11;;;;;;;4.20;2.90;;;;;;;19.49;100.00;97361.28;1224245;75;2928246;-67
2023/07/21 03:25:46;;;;;;;3.45;2.75;;;;;;;19.73;100.00;97366.47;1224328;75;2929326;-67
2023/07/21 03:28:21;;;;;;;2.70;2.50;;;;;;;19.42;100.00;97361.97;1224211;75;2927003;-66
2023/07/21 03:31:00;;;;;;;5.00;2.90;;;;;;;19.37;100.00;97360.84;1224005;75;2924038;-67
2023/07/21 03:33:33;;;;;;;4.50;3.75;;;;;;;19.18;100.00;97357.53;1223629;75;2930817;-67
2023/07/21 03:36:08;;;;;;;4.40;4.00;;;;;;;19.12;100.00;97372.28;1222763;75;2926675;-65
2023/07/21 03:38:41;;;;;;;3.15;2.75;;;;;;;19.61;100.00;97373.59;1223448;75;2928440;-65
2023/07/21 03:41:14;;;;;;;3.90;2.80;;;;;;;19.52;100.00;97377.59;1224015;75;2930469;-66
2023/07/21 03:43:51;;;;;;;5.70;5.15;;;;;;;18.90;100.00;97386.66;1223717;75;2918787;-65
2023/07/21 03:46:23;;;;;;;6.75;5.65;;;;;;;18.81;100.00;97389.88;1223487;75;2928849;-65
2023/07/21 03:48:56;;;;;;;7.15;5.75;;;;;;;18.68;100.00;97396.94;1222901;75;2941218;-65
2023/07/21 03:51:29;;;;;;;7.05;5.10;;;;;;;18.58;100.00;97384.06;1221204;75;2926014;-68
2023/07/21 03:54:01;;;;;;;6.10;4.75;;;;;;;18.50;100.00;97395.09;1223941;75;2923617;-67
2023/07/21 03:56:34;;;;;;;6.55;4.65;;;;;;;18.44;100.00;97400.00;1223854;75;2924611;-65
2023/07/21 03:59:09;;;;;;;6.45;4.70;;;;;;;18.48;100.00;97392.09;1223892;75;2917796;-69
2023/07/21 04:01:42;;;;;;;6.45;5.65;;;;;;;18.33;100.00;97384.34;1223921;75;2925410;-65
2023/07/21 04:04:15;;;;;;;5.55;4.55;;;;;;;18.59;100.00;97385.56;1223083;75;2919398;-64
2023/07/21 04:06:47;;;;;;;4.80;4.30;;;;;;;18.70;100.00;97383.28;1223990;75;2921772;-67
2023/07/21 04:09:20;;;;;;;6.25;4.40;;;;;;;18.59;100.00;97383.56;1224237;75;2918303;-67
2023/07/21 04:11:53;;;;;;;5.00;3.85;;;;;;;18.71;100.00;97373.72;1223816;75;2918318;-68
2023/07/21 04:14:28;;;;;;;5.70;4.45;;;;;;;18.65;100.00;97359.22;1224084;75;2918241;-67
2023/07/21 04:17:01;;;;;;;4.85;4.20;;;;;;;18.70;100.00;97357.59;1207829;75;4204614;-65
2023/07/21 04:19:33;;;;;;;4.00;3.60;;;;;;;18.77;100.00;97362.50;1223757;75;2935295;-66
2023/07/21 04:22:07;;;;;;;4.35;3.70;;;;;;;18.72;100.00;97377.94;1223875;75;2917050;-67
2023/07/21 04:24:39;;;;;;;3.55;3.10;;;;;;;18.68;100.00;97376.78;1223920;75;2924158;-65
2023/07/21 04:27:12;;;;;;;4.35;2.90;;;;;;;19.01;100.00;97391.97;1223616;75;2933282;-65
2023/07/21 04:29:47;;;;;;;4.15;2.70;;;;;;;19.06;100.00;97407.72;1224263;75;2923438;-65
2023/07/21 04:32:20;;;;;;;3.05;2.65;;;;;;;19.11;100.00;97409.63;1224218;75;2925066;-67
2023/07/21 04:34:52;;;;;;;3.90;3.50;;;;;;;19.11;100.00;97411.66;1224015;75;2922043;-67
2023/07/21 04:37:25;;;;;;;4.20;3.05;;;;;;;19.33;100.00;97390.94;1224356;75;2922053;-64
2023/07/21 04:39:58;;;;;;;4.10;2.80;;;;;;;19.25;100.00;97404.03;1224143;75;2939865;-64
2023/07/21 04:42:30;;;;;;;2.60;2.40;;;;;;;19.33;100.00;97402.06;1224441;75;2924918;-62
2023/07/21 04:45:11;;;;;;;3.40;2.80;;;;;;;19.09;100.00;97401.09;1224229;75;2939244;-64
2023/07/21 04:47:44;;;;;;;5.75;3.60;;;;;;;19.04;100.00;97406.78;1223835;75;2927860;-63
2023/07/21 04:50:16;;;;;;;4.05;3.60;;;;;;;19.14;100.00;97405.03;1224350;75;2934901;-68
2023/07/21 04:52:49;;;;;;;3.75;3.45;;;;;;;18.87;100.00;97404.38;1223814;75;2915521;-65
2023/07/21 04:55:22;;;;;;;4.45;3.30;;;;;;;19.24;100.00;97392.19;1224192;75;2931151;-69
2023/07/21 04:57:55;;;;;;;3.30;3.00;;;;;;;19.04;100.00;97387.34;1223874;75;2941005;-65
2023/07/21 05:00:30;;;;;;;3.30;2.95;;;;;;;19.36;100.00;97392.63;1223861;75;2936904;-65
2023/07/21 05:03:03;;;;;;;4.35;2.65;;;;;;;19.46;100.00;97393.66;1225031;75;2922249;-65
2023/07/21 05:05:38;;;;;;;2.35;2.15;;;;;;;19.67;100.00;97381.78;1224168;75;2939334;-65
2023/07/21 05:08:11;;;;;;;3.20;2.20;;;;;;;19.64;100.00;97383.59;1223770;75;2932655;-65
2023/07/21 05:10:43;;;;;;;2.30;1.95;;;;;;;;;;1224085;75;2928204;-67
2023/07/21 05:13:16;;;;;;;2.80;2.55;;;;;;;19.52;100.00;97388.69;1223905;75;2925795;-62
2023/07/21 05:15:51;;;;;;;3.45;3.05;;;;;;;19.25;100.00;97381.81;1225094;75;2923083;-68
2023/07/21 05:18:23;;;;;;;3.60;2.60;;;;;;;19.61;100.00;97372.84;1224141;75;2926298;-64
2023/07/21 05:20:56;;;;;;;3.20;2.35;;;;;;;19.82;100.00;97375.59;1223652;75;2926148;-67
2023/07/21 05:23:29;;;;;;;3.15;2.65;;;;;;;19.92;100.00;97366.22;1223700;75;2927279;-65
2023/07/21 05:26:02;;;;;;;2.45;2.25;;;;;;;19.81;100.00;97376.91;1224573;75;2926293;-67
2023/07/21 05:28:35;;;;;;;4.90;3.40;;;;;;;19.83;100.00;97374.31;1223874;75;2934506;-68
2023/07/21 05:31:13;;;;;;;6.90;3.85;;;;;;;19.79;100.00;97380.97;1224246;75;2921509;-65
2023/07/21 05:33:45;;;;;;;6.00;4.10;;;;;;;19.68;100.00;97386.09;1224161;75;2933342;-65
2023/07/21 05:36:18;;;;;;;4.05;2.85;;;;;;;20.05;100.00;97384.09;1224082;75;2933555;-62
2023/07/21 05:38:51;;;;;;;4.45;3.40;;;;;;;19.98;100.00;97385.53;1223471;75;2924145;-64
2023/07/21 05:41:24;;;;;;;6.20;3.40;;;;;;;19.96;100.00;97397.19;1224133;83;2918905;-66
2023/07/21 05:43:58;;;;;;;3.40;2.65;;;;;;;20.37;100.00;97392.78;1223686;75;2932037;-64
2023/07/21 05:46:33;;;;;;;3.70;2.60;;;;;;;20.24;100.00;97390.09;1223881;75;2923302;-64
2023/07/21 05:49:06;;;;;;;3.05;2.45;;;;;;;20.37;100.00;97384.44;1223987;75;2931351;-65
2023/07/21 05:51:38;;;;;;;5.10;3.20;;;;;;;20.27;100.00;97375.09;1224143;75;2926902;-65
2023/07/21 05:54:11;;;;;;;4.10;3.50;;;;;;;20.00;100.00;97366.28;1223995;75;2933908;-67
2023/07/21 05:56:43;;;;;;;3.50;3.15;;;;;;;20.38;100.00;97344.22;1224244;75;2933021;-63
2023/07/21 05:59:16;;;;;;;3.30;3.00;;;;;;;20.51;100.00;97346.09;1224363;75;2924592;-64
2023/07/21 06:01:52;;;;;;;3.95;3.30;;;;;;;20.83;100.00;97350.50;1224159;75;2927901;-68
2023/07/21 06:04:24;;;;;;;2.80;2.50;;;;;;;20.99;100.00;97365.16;1223817;75;2930277;-65
2023/07/21 06:06:57;;;;;;;3.75;2.40;;;;;;;21.03;100.00;97365.53;1223958;75;2921860;-67
2023/07/21 06:09:29;;;;;;;2.25;2.00;;;;;;;21.13;100.00;97357.38;1223588;75;2931231;-65
2023/07/21 06:12:02;;;;;;;3.40;2.60;;;;;;;20.89;100.00;97353.09;1223384;75;2924039;-63
2023/07/21 06:14:35;;;;;;;4.45;3.40;;;;;;;20.72;100.00;97353.63;1223850;75;2932859;-64
2023/07/21 06:17:10;;;;;;;4.50;3.20;;;;;;;20.70;100.00;97354.16;1223798;75;2922689;-65
2023/07/21 06:19:43;;;;;;;4.15;3.10;;;;;;;21.08;100.00;97361.84;1224236;75;2925002;-65
2023/07/21 06:22:15;;;;;;;4.15;3.35;;;;;;;20.75;100.00;97355.28;1223818;75;2923401;-65
2023/07/21 06:24:48;;;;;;;7.65;3.90;;;;;;;20.56;100.00;97344.47;1223938;75;2917752;-65
2023/07/21 06:27:21;;;;;;;5.15;4.20;;;;;;;20.39;100.00;97345.69;1223815;75;2928889;-64
2023/07/21 06:29:53;;;;;;;7.40;4.35;;;;;;;20.21;100.00;97347.47;1224191;75;2926354;-67
2023/07/21 06:32:29;;;;;;;4.40;3.85;;;;;;;20.59;100.00;97337.81;1223973;75;2924870;-67
2023/07/21 06:35:03;;;;;;;6.45;4.35;;;;;;;20.30;100.00;97332.34;1224694;75;2921221;-65
2023/07/21 06:37:37;;;;;;;4.60;3.85;;;;;;;20.25;100.00;97318.56;1223898;75;2927372;-69
2023/07/21 06:40:12;;;;;;;7.20;4.70;;;;;;;20.07;100.00;97320.38;1224746;75;2919308;-67
2023/07/21 06:42:45;;;;;;;4.30;3.75;;;;;;;20.32;100.00;97309.53;1223965;75;2926333;-64
2023/07/21 06:45:17;;;;;;;5.35;4.30;;;;;;;20.21;100.00;97313.38;1224038;75;2926619;-65
2023/07/21 06:47:52;;;;;;;4.85;3.35;;;;;;;20.20;100.00;97298.75;1223835;75;2929789;-69
2023/07/21 06:50:25;;;;;;;4.80;3.50;;;;;;;20.22;100.00;97312.09;1224067;75;2939837;-66
2023/07/21 06:52:58;;;;;;;4.90;3.85;;;;;;;20.31;100.00;97292.09;1224099;75;2932592;-62
2023/07/21 06:55:30;;;;;;;4.75;3.40;;;;;;;20.59;100.00;97296.84;1223729;75;2925118;-64
2023/07/21 06:58:03;;;;;;;2.60;2.40;;;;;;;20.74;100.00;97296.13;1224155;75;2922328;-66
2023/07/21 07:00:36;;;;;;;4.60;3.40;;;;;;;20.40;100.00;97290.84;1224153;75;2922926;-66
2023/07/21 07:03:11;;;;;;;4.10;3.55;;;;;;;20.37;100.00;97292.69;1223942;75;2928834;-67
2023/07/21 07:05:48;;;;;;;5.65;3.90;;;;;;;20.49;100.00;97298.63;1224677;75;2923618;-65
2023/07/21 07:08:21;;;;;;;3.65;2.95;;;;;;;20.82;100.00;97301.69;1224502;75;2930601;-63
2023/07/21 07:10:53;;;;;;;7.20;4.10;;;;;;;20.57;100.00;97307.03;1224498;75;2918618;-67
2023/07/21 07:13:26;;;;;;;5.55;4.20;;;;;;;20.89;100.00;97323.22;1223952;75;2922812;-65
2023/07/21 07:15:58;;;;;;;4.35;3.90;;;;;;;21.06;100.00;97336.59;1224419;75;2922400;-64
2023/07/21 07:18:34;;;;;;;7.45;4.85;;;;;;;20.75;100.00;97342.09;1224854;75;2923744;-66
2023/07/21 07:21:06;;;;;;;8.75;5.25;;;;;;;20.61;100.00;97361.00;1222767;75;2927539;-65
2023/07/21 07:23:39;;;;;;;10.40;5.70;;;;;;;20.57;100.00;97359.88;1223857;75;2922875;-66
2023/07/21 07:26:12;;;;;;;13.45;6.25;;;;;;;20.34;100.00;97359.75;1224081;75;2923242;-66
2023/07/21 07:28:45;;;;;;;8.35;5.85;;;;;;;20.25;100.00;97351.94;1223015;75;3033970;-68
2023/07/21 07:31:17;;;;;;;5.40;4.65;;;;;;;20.27;100.00;97349.34;1224066;75;2926673;-67
2023/07/21 07:33:53;;;;;;;6.15;4.30;;;;;;;20.29;100.00;97338.44;1224212;75;2924353;-65
2023/07/21 07:36:25;;;;;;;5.25;4.25;;;;;;;20.44;100.00;97335.69;1224101;75;2925400;-66
2023/07/21 07:38:58;;;;;;;6.80;4.55;;;;;;;20.36;100.00;97343.28;1224319;75;2924931;-63
2023/07/21 07:41:31;;;;;;;5.35;4.30;;;;;;;20.43;100.00;97339.78;1224122;75;2928330;-68
2023/07/21 07:44:03;;;;;;;7.60;3.80;;;;;;;20.41;100.00;97329.19;1224989;75;2919344;-68
2023/07/21 07:46:36;;;;;;;3.85;3.20;;;;;;;20.70;100.00;97340.25;1224469;75;2928077;-63
2023/07/21 07:49:11;;;;;;;3.40;3.10;;;;;;;20.69;100.00;97336.00;1221094;75;3067579;-65
2023/07/21 07:51:43;;;;;;;4.10;3.20;;;;;;;20.56;100.00;97325.00;1224829;75;2924415;-66
2023/07/21 07:54:17;;;;;;;4.50;3.35;;;;;;;20.51;100.00;97321.06;1224572;75;2921593;-70
2023/07/21 07:56:51;;;;;;;5.75;3.55;;;;;;;20.81;100.00;97323.22;1224332;75;2920317;-68
2023/07/21 07:59:24;;;;;;;3.85;2.95;;;;;;;21.20;100.00;97321.19;1224652;75;2926265;-66
2023/07/21 08:01:57;;;;;;;2.65;2.20;;;;;;;21.49;100.00;97329.38;1224072;75;2925006;-65
2023/07/21 08:04:32;;;;;;;1.80;1.60;;;;;;;21.85;100.00;97334.69;1224460;75;2919417;-66
2023/07/21 08:07:04;;;;;;;2.90;2.40;;;;;;;21.92;100.00;97336.00;1224794;75;2918251;-64
2023/07/21 08:09:37;;;;;;;2.30;2.05;;;;;;;22.22;100.00;97317.69;1224254;75;2919581;-66
2023/07/21 08:12:11;;;;;;;2.75;2.45;;;;;;;22.11;100.00;97324.41;1224725;75;2929737;-66
2023/07/21 08:14:43;;;;;;;2.10;1.90;;;;;;;22.70;100.00;97326.00;1225338;75;2928339;-66
2023/07/21 08:17:17;;;;;;;2.45;1.65;;;;;;;23.00;100.00;97324.38;1225597;75;2920182;-67
2023/07/21 08:19:53;;;;;;;1.75;1.60;;;;;;;23.21;100.00;97324.75;1224069;75;2919866;-66
2023/07/21 08:22:25;;;;;;;2.15;1.80;;;;;;;23.60;100.00;97322.38;1224653;75;2924160;-66
2023/07/21 08:24:58;;;;;;;4.35;3.00;;;;;;;22.85;100.00;97309.19;1224285;75;2929233;-69
2023/07/21 08:27:32;;;;;;;3.35;2.65;;;;;;;23.67;100.00;97312.41;1224795;75;2930959;-67
2023/07/21 08:30:08;;;;;;;2.80;2.40;;;;;;;24.11;100.00;97312.53;1219974;75;3091595;-67
2023/07/21 08:32:41;;;;;;;3.00;2.50;;;;;;;24.27;99.44;97307.50;1223717;75;2934669;-68
2023/07/21 08:35:16;;;;;;;2.20;2.00;;;;;;;24.76;94.77;97293.78;1225411;75;2920433;-67
2023/07/21 08:37:49;;;;;;;2.00;1.80;;;;;;;25.08;91.97;97301.88;1225092;75;2923120;-66
2023/07/21 08:40:22;;;;;;;2.10;1.80;;;;;;;25.00;91.63;97300.53;1224888;75;2919013;-65
2023/07/21 08:42:55;;;;;;;2.95;2.30;;;;;;;25.37;92.92;97304.03;1224615;75;2927510;-67
2023/07/21 08:45:33;;;;;;;2.65;2.20;;;;;;;25.38;87.64;97302.72;1224588;75;2928302;-66
2023/07/21 08:48:07;;;;;;;2.15;1.60;;;;;;;25.81;85.33;97291.84;1224990;75;2920493;-67
2023/07/21 08:50:43;;;;;;;2.50;1.95;;;;;;;25.66;89.72;97284.47;1224346;75;2913441;-66
2023/07/21 08:53:16;;;;;;;2.30;1.85;;;;;;;25.97;78.26;97288.78;1224461;75;2921688;-65
2023/07/21 08:55:49;;;;;;;4.20;2.15;;;;;;;25.00;84.13;97297.72;1224290;75;2921601;-65
2023/07/21 08:58:22;;;;;;;2.10;1.75;;;;;;;26.01;81.61;97284.19;1223711;75;2928825;-67
2023/07/21 09:00:56;;;;;;;2.35;1.50;;;;;;;26.63;77.75;97280.84;1225117;75;2917391;-67
2023/07/21 09:03:32;;;;;;;2.65;1.75;;;;;;;26.27;75.82;97296.56;1224634;75;2935536;-66
2023/07/21 09:06:07;;;;;;;2.60;1.75;;;;;;;26.59;77.44;97293.88;1224814;75;2919867;-63
2023/07/21 09:08:40;;;;;;;3.20;1.95;;;;;;;25.39;74.47;97290.19;1224952;75;2924638;-65
2023/07/21 09:11:12;;;;;;;2.45;2.00;;;;;;;25.18;75.29;97293.50;1222374;75;2920985;-68
2023/07/21 09:13:56;;;;;;;2.55;1.60;;;;;;;25.47;69.76;97292.84;1224760;75;2923473;-66
2023/07/21 09:16:29;;;;;;;2.30;1.90;;;;;;;25.86;69.57;97295.72;1224946;75;2925431;-67
2023/07/21 09:19:01;;;;;;;2.50;1.85;;;;;;;26.20;66.15;97293.94;1224629;75;2929748;-66
2023/07/21 09:21:37;;;;;;;1.65;1.50;;;;;;;26.86;67.63;97288.75;1224298;75;2928307;-67
2023/07/21 09:24:11;;;;;;;1.85;1.35;;;;;;;26.68;63.29;97279.81;1224297;75;2926618;-68
2023/07/21 09:26:43;;;;;;;2.40;1.70;;;;;;;26.20;68.59;97283.44;1224626;75;2907122;-69
2023/07/21 09:29:21;;;;;;;1.30;1.15;;;;;;;26.78;67.51;97286.13;1225140;75;2920939;-70
2023/07/21 09:31:54;;;;;;;1.80;1.70;;;;;;;26.64;67.61;97282.31;1225246;75;2917438;-67
2023/07/21 09:34:26;;;;;;;1.70;1.50;;;;;;;27.21;67.63;97279.16;1225039;75;2925814;-65
2023/07/21 09:37:02;;;;;;;2.05;1.85;;;;;;;26.92;65.89;97277.94;1224929;75;2933333;-67
2023/07/21 09:39:34;;;;;;;2.25;1.90;;;;;;;25.89;67.03;97270.03;1224559;75;2924531;-67
2023/07/21 09:42:08;;;;;;;1.90;1.70;;;;;;;26.32;68.18;97270.28;1224590;75;2932773;-67
2023/07/21 09:44:41;;;;;;;2.50;1.75;;;;;;;26.82;65.41;97263.22;1225406;75;2921703;-64
2023/07/21 09:47:14;;;;;;;2.20;1.80;;;;;;;26.18;70.05;97271.34;1224802;75;2933083;-62
2023/07/21 09:49:48;;;;;;;1.75;1.50;;;;;;;25.61;64.33;97260.25;1224361;75;2919333;-67
2023/07/21 09:52:24;;;;;;;2.40;1.85;;;;;;;25.34;64.08;97262.44;1224064;75;2932876;-65
2023/07/21 09:55:09;;;;;;;1.90;1.70;;;;;;;25.50;64.20;97261.59;1224282;75;2925750;-63
2023/07/21 09:57:47;;;;;;;2.00;1.60;;;;;;;25.38;67.17;97266.28;1225244;75;2926281;-65
2023/07/21 10:00:20;;;;;;;;;;;;;;;25.35;68.39;97261.13;1225790;75;2922256;-64
2023/07/21 10:02:53;;;;;;;3.30;2.00;;;;;;;25.24;71.19;97257.56;1224554;75;2921839;-65
2023/07/21 10:05:26;;;;;;;2.60;2.00;;;;;;;25.55;69.78;97257.03;1225120;75;2931510;-67
2023/07/21 10:08:03;;;;;;;3.30;2.40;;;;;;;25.97;69.82;97253.03;1224352;75;2930216;-65
2023/07/21 10:10:36;;;;;;;3.50;2.30;;;;;;;25.90;70.72;97240.66;1223983;75;2928624;-67
2023/07/21 10:13:10;;;;;;;2.75;2.10;;;;;;;25.60;71.48;97241.25;1224282;75;2925244;-67
2023/07/21 10:15:42;;;;;;;3.50;2.10;;;;;;;26.53;67.75;97230.34;1224352;75;2917107;-69
2023/07/21 10:18:16;;;;;;;2.30;1.80;;;;;;;26.97;67.29;97240.34;1224657;75;2921501;-68
2023/07/21 10:20:52;;;;;;;5.05;2.00;;;;;;;27.14;67.41;97242.19;1224800;75;2917100;-65
2023/07/21 10:23:34;;;;;;;2.05;1.75;;;;;;;26.52;68.39;97240.06;1224912;75;2918561;-66
2023/07/21 10:26:08;;;;;;;1.95;1.60;;;;;;;26.25;69.72;97240.31;1224139;75;2927415;-68
2023/07/21 10:28:44;;;;;;;2.50;1.80;;;;;;;25.99;68.70;97232.81;1224330;75;2921193;-65
2023/07/21 10:31:39;;;;;;;5.30;1.80;;;;;;;26.07;67.75;97239.00;1223936;75;2923198;-67
2023/07/21 10:34:14;;;;;;;1.70;1.60;;;;;;;26.23;68.48;97228.22;1224451;75;2923955;-66
2023/07/21 10:36:58;;;;;;;2.90;2.00;;;;;;;26.01;69.05;97230.19;1224501;75;2927671;-64
2023/07/21 10:39:37;;;;;;;3.05;1.90;;;;;;;25.25;71.25;97236.63;1224663;75;2916220;-64
2023/07/21 10:42:11;;;;;;;3.10;2.25;;;;;;;25.50;71.95;97236.38;1224453;75;2921982;-67
2023/07/21 10:44:47;;;;;;;2.30;2.10;;;;;;;25.70;70.06;97230.75;1224231;75;2918222;-64
2023/07/21 10:47:22;;;;;;;2.90;2.10;;;;;;;25.59;70.21;97237.72;1223769;75;2922729;-66
2023/07/21 10:49:54;;;;;;;2.90;2.30;;;;;;;25.27;72.70;97255.66;1224530;75;2928307;-66
2023/07/21 10:52:27;;;;;;;2.80;2.50;;;;;;;25.02;74.20;97258.66;1224189;75;2928597;-66
2023/07/21 10:55:03;;;;;;;2.05;1.85;;;;;;;25.13;75.83;97248.97;1223306;75;2921146;-67
2023/07/21 10:57:38;;;;;;;3.90;2.40;;;;;;;25.32;72.58;97251.81;1224975;75;2925467;-66
2023/07/21 11:00:13;;;;;;;2.25;1.80;;;;;;;25.63;71.73;97242.84;1223912;75;2920512;-66
2023/07/21 11:02:45;;;;;;;2.15;1.90;;;;;;;25.65;70.08;97254.94;1224514;75;2920651;-67
2023/07/21 11:05:20;;;;;;;2.00;1.80;;;;;;;25.44;71.55;97246.38;1224895;75;2927478;-66
2023/07/21 11:07:53;;;;;;;3.00;2.00;;;;;;;25.88;71.66;97239.75;1225101;75;2919927;-66
2023/07/21 11:10:36;;;;;;;2.35;1.90;;;;;;;26.67;68.85;97227.03;1224375;75;2943232;-69
2023/07/21 11:13:09;;;;;;;2.80;2.10;;;;;;;26.55;69.91;97227.69;1225038;75;2919136;-66
2023/07/21 11:15:42;;;;;;;3.25;1.80;;;;;;;26.69;68.01;97221.56;1224929;75;2926220;-65
2023/07/21 11:18:14;;;;;;;3.00;2.35;;;;;;;26.90;66.84;97213.19;1224378;75;2922442;-64
2023/07/21 11:20:51;;;;;;;2.45;2.00;;;;;;;26.53;68.24;97212.72;1224907;75;2916487;-67
2023/07/21 11:23:26;;;;;;;2.40;1.85;;;;;;;26.42;68.61;97225.34;1224344;75;2925491;-69
2023/07/21 11:26:10;;;;;;;2.90;2.20;;;;;;;26.05;69.82;97222.03;1224364;75;2921793;-67
2023/07/21 11:28:45;;;;;;;1.60;1.50;;;;;;;26.47;67.66;97212.31;1224975;75;2929953;-65
2023/07/21 11:31:19;;;;;;;1.65;1.50;;;;;;;26.90;65.65;97215.28;1224783;75;2926386;-64
2023/07/21 11:33:52;;;;;;;1.55;1.45;;;;;;;26.84;66.22;97215.56;1225113;75;2914504;-65
2023/07/21 11:36:27;;;;;;;1.50;1.30;;;;;;;26.27;68.30;97209.59;1222217;75;3042851;-68
2023/07/21 11:39:04;;;;;;;2.85;2.00;;;;;;;25.79;67.12;97204.78;1224729;75;2926318;-62
2023/07/21 11:41:54;;;;;;;2.00;1.60;;;;;;;25.72;66.55;97203.59;1224425;75;2925579;-69